sensor_id;sensor_type;location;lat;lon;timestamp;pressure;altitude;pressure_sealevel;temperature;humidity
20424;BME280;10371;49.042;8.002;2022-08-20T00:00:07;99750.63;;;21.10;94.87
20424;BME280;10371;49.042;8.002;2022-08-20T00:01:11;99747.34;;;21.08;94.79
20424;BME280;10371;49.042;8.002;2022-08-20T00:02:12;99752.63;;;21.08;94.75
20424;BME280;10371;49.042;8.002;2022-08-20T00:03:17;99748.53;;;21.06;94.95
20424;BME280;10371;49.042;8.002;2022-08-20T00:04:17;99764.88;;;21.09;95.07
20424;BME280;10371;49.042;8.002;2022-08-20T00:05:24;99758.56;;;21.10;94.97
20424;BME280;10371;49.042;8.002;2022-08-20T00:06:25;99759.38;;;21.11;95.09
20424;BME280;10371;49.042;8.002;2022-08-20T00:07:26;99750.81;;;21.09;94.96
20424;BME280;10371;49.042;8.002;2022-08-20T00:08:26;99758.56;;;21.10;94.88
20424;BME280;10371;49.042;8.002;2022-08-20T00:09:26;99758.75;;;21.09;95.03
20424;BME280;10371;49.042;8.002;2022-08-20T00:10:28;99756.94;;;21.09;94.94
20424;BME280;10371;49.042;8.002;2022-08-20T00:11:29;99751.81;;;21.08;95.08
20424;BME280;10371;49.042;8.002;2022-08-20T00:12:34;99751.66;;;21.09;94.94
20424;BME280;10371;49.042;8.002;2022-08-20T00:13:41;99754.88;;;21.05;94.93
20424;BME280;10371;49.042;8.002;2022-08-20T00:14:42;99755.50;;;21.07;94.99
20424;BME280;10371;49.042;8.002;2022-08-20T00:15:42;99759.78;;;21.08;95.04
20424;BME280;10371;49.042;8.002;2022-08-20T00:16:43;99761.41;;;21.09;95.13
20424;BME280;10371;49.042;8.002;2022-08-20T00:17:43;99752.22;;;21.05;95.31
20424;BME280;10371;49.042;8.002;2022-08-20T00:18:44;99749.56;;;21.05;95.47
20424;BME280;10371;49.042;8.002;2022-08-20T00:19:45;99756.09;;;21.09;95.40
20424;BME280;10371;49.042;8.002;2022-08-20T00:20:47;99762.41;;;21.08;95.22
20424;BME280;10371;49.042;8.002;2022-08-20T00:21:48;99759.78;;;21.08;95.31
20424;BME280;10371;49.042;8.002;2022-08-20T00:22:49;99754.47;;;21.08;95.44
20424;BME280;10371;49.042;8.002;2022-08-20T00:23:51;99754.69;;;21.06;95.56
20424;BME280;10371;49.042;8.002;2022-08-20T00:24:52;99757.50;;;21.05;95.68
20424;BME280;10371;49.042;8.002;2022-08-20T00:25:52;99750.38;;;21.05;96.01
20424;BME280;10371;49.042;8.002;2022-08-20T00:26:53;99752.41;;;21.03;96.04
20424;BME280;10371;49.042;8.002;2022-08-20T00:27:55;99754.06;;;21.04;95.91
20424;BME280;10371;49.042;8.002;2022-08-20T00:28:55;99762.19;;;21.03;95.84
20424;BME280;10371;49.042;8.002;2022-08-20T00:29:55;99755.03;;;21.03;96.01
20424;BME280;10371;49.042;8.002;2022-08-20T00:30:56;99759.53;;;21.03;96.38
20424;BME280;10371;49.042;8.002;2022-08-20T00:31:56;99764.81;;;21.03;96.29
20424;BME280;10371;49.042;8.002;2022-08-20T00:33:02;99759.75;;;21.01;96.80
20424;BME280;10371;49.042;8.002;2022-08-20T00:34:03;99753.81;;;20.99;96.87
20424;BME280;10371;49.042;8.002;2022-08-20T00:35:03;99756.28;;;21.01;96.90
20424;BME280;10371;49.042;8.002;2022-08-20T00:36:05;99748.69;;;20.97;96.82
20424;BME280;10371;49.042;8.002;2022-08-20T00:37:08;99760.72;;;21.00;97.01
20424;BME280;10371;49.042;8.002;2022-08-20T00:38:08;99768.50;;;21.02;96.99
20424;BME280;10371;49.042;8.002;2022-08-20T00:39:09;99764.22;;;21.01;97.18
20424;BME280;10371;49.042;8.002;2022-08-20T00:40:11;99763.84;;;21.04;96.77
20424;BME280;10371;49.042;8.002;2022-08-20T00:41:23;99764.63;;;21.04;96.67
20424;BME280;10371;49.042;8.002;2022-08-20T00:42:23;99763.84;;;21.04;97.01
20424;BME280;10371;49.042;8.002;2022-08-20T00:44:33;99771.38;;;21.07;96.91
20424;BME280;10371;49.042;8.002;2022-08-20T00:45:34;99765.06;;;21.08;96.80
20424;BME280;10371;49.042;8.002;2022-08-20T00:46:35;99774.44;;;21.10;96.63
20424;BME280;10371;49.042;8.002;2022-08-20T00:47:35;99773.44;;;21.11;96.74
20424;BME280;10371;49.042;8.002;2022-08-20T00:48:41;99767.75;;;21.14;96.64
20424;BME280;10371;49.042;8.002;2022-08-20T00:49:42;99766.34;;;21.12;96.61
20424;BME280;10371;49.042;8.002;2022-08-20T00:50:44;99768.38;;;21.16;96.32
20424;BME280;10371;49.042;8.002;2022-08-20T00:52:12;99776.75;;;21.20;96.13
20424;BME280;10371;49.042;8.002;2022-08-20T00:53:13;99770.84;;;21.18;96.20
20424;BME280;10371;49.042;8.002;2022-08-20T00:55:37;99765.16;;;21.21;96.39
20424;BME280;10371;49.042;8.002;2022-08-20T00:56:38;99765.16;;;21.21;96.21
20424;BME280;10371;49.042;8.002;2022-08-20T00:57:42;99773.34;;;21.26;96.08
20424;BME280;10371;49.042;8.002;2022-08-20T00:58:43;99772.94;;;21.29;95.99
20424;BME280;10371;49.042;8.002;2022-08-20T00:59:44;99770.09;;;21.31;96.00
20424;BME280;10371;49.042;8.002;2022-08-20T01:00:46;99770.53;;;21.34;95.92
20424;BME280;10371;49.042;8.002;2022-08-20T01:01:47;99772.00;;;21.37;95.67
20424;BME280;10371;49.042;8.002;2022-08-20T01:02:48;99767.13;;;21.40;95.62
20424;BME280;10371;49.042;8.002;2022-08-20T01:03:50;99769.38;;;21.44;95.32
20424;BME280;10371;49.042;8.002;2022-08-20T01:04:56;99775.72;;;21.49;94.94
20424;BME280;10371;49.042;8.002;2022-08-20T01:05:58;99775.34;;;21.52;94.69
20424;BME280;10371;49.042;8.002;2022-08-20T01:07:00;99770.66;;;21.54;94.50
20424;BME280;10371;49.042;8.002;2022-08-20T01:08:01;99779.03;;;21.58;94.23
20424;BME280;10371;49.042;8.002;2022-08-20T01:09:02;99781.28;;;21.61;93.91
20424;BME280;10371;49.042;8.002;2022-08-20T01:10:14;99766.66;;;21.65;93.75
20424;BME280;10371;49.042;8.002;2022-08-20T01:11:16;99776.22;;;21.66;93.50
20424;BME280;10371;49.042;8.002;2022-08-20T01:12:19;99772.53;;;21.67;93.42
20424;BME280;10371;49.042;8.002;2022-08-20T01:13:22;99773.97;;;21.70;93.27
20424;BME280;10371;49.042;8.002;2022-08-20T01:14:23;99777.25;;;21.72;93.19
20424;BME280;10371;49.042;8.002;2022-08-20T01:15:29;99782.16;;;21.75;93.09
20424;BME280;10371;49.042;8.002;2022-08-20T01:16:30;99781.16;;;21.76;92.90
20424;BME280;10371;49.042;8.002;2022-08-20T01:17:34;99773.41;;;21.74;92.92
20424;BME280;10371;49.042;8.002;2022-08-20T01:18:36;99776.28;;;21.79;92.71
20424;BME280;10371;49.042;8.002;2022-08-20T01:19:47;99783.84;;;21.82;92.77
20424;BME280;10371;49.042;8.002;2022-08-20T01:20:57;99779.56;;;21.81;92.72
20424;BME280;10371;49.042;8.002;2022-08-20T01:21:59;99778.53;;;21.82;92.47
20424;BME280;10371;49.042;8.002;2022-08-20T01:23:19;99785.28;;;21.85;92.14
20424;BME280;10371;49.042;8.002;2022-08-20T01:24:33;99781.81;;;21.84;92.36
20424;BME280;10371;49.042;8.002;2022-08-20T01:25:48;99785.47;;;21.83;92.48
20424;BME280;10371;49.042;8.002;2022-08-20T01:26:49;99780.56;;;21.80;92.64
20424;BME280;10371;49.042;8.002;2022-08-20T01:27:51;99785.84;;;21.80;92.75
20424;BME280;10371;49.042;8.002;2022-08-20T01:28:57;99790.75;;;21.83;92.61
20424;BME280;10371;49.042;8.002;2022-08-20T01:29:58;99789.13;;;21.82;92.87
20424;BME280;10371;49.042;8.002;2022-08-20T01:31:00;99787.13;;;21.84;92.85
20424;BME280;10371;49.042;8.002;2022-08-20T01:32:01;99791.38;;;21.85;92.55
20424;BME280;10371;49.042;8.002;2022-08-20T01:33:02;99782.41;;;21.86;92.85
20424;BME280;10371;49.042;8.002;2022-08-20T01:34:06;99789.56;;;21.86;92.72
20424;BME280;10371;49.042;8.002;2022-08-20T01:35:08;99789.75;;;21.84;92.66
20424;BME280;10371;49.042;8.002;2022-08-20T01:36:09;99786.09;;;21.85;92.95
20424;BME280;10371;49.042;8.002;2022-08-20T01:37:10;99782.22;;;21.81;93.03
20424;BME280;10371;49.042;8.002;2022-08-20T01:38:11;99788.91;;;21.84;92.85
20424;BME280;10371;49.042;8.002;2022-08-20T01:39:15;99797.72;;;21.84;93.30
20424;BME280;10371;49.042;8.002;2022-08-20T01:40:26;99796.50;;;21.87;93.14
20424;BME280;10371;49.042;8.002;2022-08-20T01:42:51;99796.69;;;21.92;92.98
20424;BME280;10371;49.042;8.002;2022-08-20T01:43:52;99793.47;;;21.90;92.69
20424;BME280;10371;49.042;8.002;2022-08-20T01:44:56;99794.28;;;21.91;92.62
20424;BME280;10371;49.042;8.002;2022-08-20T01:45:56;99794.06;;;21.92;92.65
20424;BME280;10371;49.042;8.002;2022-08-20T01:47:08;99788.56;;;21.94;92.55
20424;BME280;10371;49.042;8.002;2022-08-20T01:48:09;99784.06;;;21.94;92.46
20424;BME280;10371;49.042;8.002;2022-08-20T01:49:18;99785.09;;;21.93;92.18
20424;BME280;10371;49.042;8.002;2022-08-20T01:50:23;99788.34;;;21.95;92.23
20424;BME280;10371;49.042;8.002;2022-08-20T01:51:28;99783.06;;;21.95;92.15
20424;BME280;10371;49.042;8.002;2022-08-20T01:52:48;99787.53;;;21.95;92.55
20424;BME280;10371;49.042;8.002;2022-08-20T01:53:53;99785.28;;;21.92;92.69
20424;BME280;10371;49.042;8.002;2022-08-20T01:54:53;99785.28;;;21.92;92.76
20424;BME280;10371;49.042;8.002;2022-08-20T01:55:54;99779.34;;;21.90;92.74
20424;BME280;10371;49.042;8.002;2022-08-20T01:56:59;99784.28;;;21.93;92.56
20424;BME280;10371;49.042;8.002;2022-08-20T01:58:00;99788.34;;;21.95;92.34
20424;BME280;10371;49.042;8.002;2022-08-20T01:59:03;99788.56;;;21.94;92.18
20424;BME280;10371;49.042;8.002;2022-08-20T02:00:12;99793.66;;;21.95;92.11
20424;BME280;10371;49.042;8.002;2022-08-20T02:01:29;99792.03;;;21.94;92.51
20424;BME280;10371;49.042;8.002;2022-08-20T02:02:32;99800.38;;;21.91;92.52
20424;BME280;10371;49.042;8.002;2022-08-20T02:03:32;99799.97;;;21.88;92.99
20424;BME280;10371;49.042;8.002;2022-08-20T02:04:33;99805.28;;;21.88;93.03
20424;BME280;10371;49.042;8.002;2022-08-20T02:05:34;99803.00;;;21.84;93.60
20424;BME280;10371;49.042;8.002;2022-08-20T02:06:38;99812.41;;;21.87;93.14
20424;BME280;10371;49.042;8.002;2022-08-20T02:07:40;99810.34;;;21.82;93.11
20424;BME280;10371;49.042;8.002;2022-08-20T02:08:40;99805.22;;;21.81;93.50
20424;BME280;10371;49.042;8.002;2022-08-20T02:09:40;99805.03;;;21.76;93.65
20424;BME280;10371;49.042;8.002;2022-08-20T02:10:41;99816.22;;;21.78;94.00
20424;BME280;10371;49.042;8.002;2022-08-20T02:11:41;99815.41;;;21.77;93.82
20424;BME280;10371;49.042;8.002;2022-08-20T02:12:41;99819.69;;;21.78;93.72
20424;BME280;10371;49.042;8.002;2022-08-20T02:13:42;99819.25;;;21.75;93.81
20424;BME280;10371;49.042;8.002;2022-08-20T02:14:45;99819.25;;;21.75;93.71
20424;BME280;10371;49.042;8.002;2022-08-20T02:15:46;99823.75;;;21.74;94.17
20424;BME280;10371;49.042;8.002;2022-08-20T02:16:46;99812.75;;;21.71;94.54
20424;BME280;10371;49.042;8.002;2022-08-20T02:17:46;99816.38;;;21.70;94.65
20424;BME280;10371;49.042;8.002;2022-08-20T02:18:51;99821.50;;;21.71;94.76
20424;BME280;10371;49.042;8.002;2022-08-20T02:20:00;99817.00;;;21.72;95.08
20424;BME280;10371;49.042;8.002;2022-08-20T02:21:02;99818.84;;;21.71;94.75
20424;BME280;10371;49.042;8.002;2022-08-20T02:22:13;99815.19;;;21.72;94.83
20424;BME280;10371;49.042;8.002;2022-08-20T02:23:15;99822.31;;;21.72;95.07
20424;BME280;10371;49.042;8.002;2022-08-20T02:24:16;99823.13;;;21.72;94.80
20424;BME280;10371;49.042;8.002;2022-08-20T02:25:21;99817.00;;;21.72;94.36
20424;BME280;10371;49.042;8.002;2022-08-20T02:26:22;99830.69;;;21.75;94.51
20424;BME280;10371;49.042;8.002;2022-08-20T02:27:22;99813.56;;;21.71;94.23
20424;BME280;10371;49.042;8.002;2022-08-20T02:28:23;99825.38;;;21.75;94.17
20424;BME280;10371;49.042;8.002;2022-08-20T02:29:23;99822.56;;;21.77;94.11
20424;BME280;10371;49.042;8.002;2022-08-20T02:30:37;99823.19;;;21.79;94.00
20424;BME280;10371;49.042;8.002;2022-08-20T02:31:40;99828.25;;;21.80;93.85
20424;BME280;10371;49.042;8.002;2022-08-20T02:32:41;99822.97;;;21.80;94.11
20424;BME280;10371;49.042;8.002;2022-08-20T02:33:41;99821.97;;;21.81;93.91
20424;BME280;10371;49.042;8.002;2022-08-20T02:34:43;99827.88;;;21.83;93.75
20424;BME280;10371;49.042;8.002;2022-08-20T02:35:46;99827.88;;;21.83;93.72
20424;BME280;10371;49.042;8.002;2022-08-20T02:36:47;99823.38;;;21.84;93.75
20424;BME280;10371;49.042;8.002;2022-08-20T02:37:49;99814.81;;;21.82;93.81
20424;BME280;10371;49.042;8.002;2022-08-20T02:38:49;99814.81;;;21.82;93.92
20424;BME280;10371;49.042;8.002;2022-08-20T02:39:49;99809.31;;;21.83;93.89
20424;BME280;10371;49.042;8.002;2022-08-20T02:40:50;99808.31;;;21.84;94.04
20424;BME280;10371;49.042;8.002;2022-08-20T02:41:51;99805.66;;;21.84;93.89
20424;BME280;10371;49.042;8.002;2022-08-20T02:42:53;99805.03;;;21.82;94.04
20424;BME280;10371;49.042;8.002;2022-08-20T02:43:53;99802.19;;;21.84;93.96
20424;BME280;10371;49.042;8.002;2022-08-20T02:44:53;99805.03;;;21.82;94.28
20424;BME280;10371;49.042;8.002;2022-08-20T02:45:54;99809.13;;;21.85;94.22
20424;BME280;10371;49.042;8.002;2022-08-20T02:46:54;99811.38;;;21.81;94.28
20424;BME280;10371;49.042;8.002;2022-08-20T02:47:55;99805.22;;;21.81;94.38
20424;BME280;10371;49.042;8.002;2022-08-20T02:48:57;99805.66;;;21.84;94.38
20424;BME280;10371;49.042;8.002;2022-08-20T02:49:57;99799.09;;;21.80;94.58
20424;BME280;10371;49.042;8.002;2022-08-20T02:51:01;99803.00;;;21.84;94.52
20424;BME280;10371;49.042;8.002;2022-08-20T02:52:02;99802.38;;;21.82;94.55
20424;BME280;10371;49.042;8.002;2022-08-20T02:53:02;99799.34;;;21.85;94.44
20424;BME280;10371;49.042;8.002;2022-08-20T02:54:02;99796.47;;;21.80;94.67
20424;BME280;10371;49.042;8.002;2022-08-20T02:55:03;99803.41;;;21.81;94.91
20424;BME280;10371;49.042;8.002;2022-08-20T02:56:06;99809.72;;;21.80;94.96
20424;BME280;10371;49.042;8.002;2022-08-20T02:57:15;99809.09;;;21.78;95.15
20424;BME280;10371;49.042;8.002;2022-08-20T02:58:16;99812.75;;;21.77;95.39
20424;BME280;10371;49.042;8.002;2022-08-20T02:59:17;99809.69;;;21.74;95.76
20424;BME280;10371;49.042;8.002;2022-08-20T03:00:20;99814.38;;;21.72;96.04
20424;BME280;10371;49.042;8.002;2022-08-20T03:01:21;99810.91;;;21.71;96.05
20424;BME280;10371;49.042;8.002;2022-08-20T03:02:21;99809.66;;;21.67;96.09
20424;BME280;10371;49.042;8.002;2022-08-20T03:03:22;99807.22;;;21.66;96.37
20424;BME280;10371;49.042;8.002;2022-08-20T03:04:23;99804.91;;;21.56;96.92
20424;BME280;10371;49.042;8.002;2022-08-20T03:05:23;99802.47;;;21.54;97.56
20424;BME280;10371;49.042;8.002;2022-08-20T03:06:25;99806.94;;;21.54;97.86
20424;BME280;10371;49.042;8.002;2022-08-20T03:07:26;99813.00;;;21.48;97.60
20424;BME280;10371;49.042;8.002;2022-08-20T03:08:26;99806.88;;;21.47;97.99
20424;BME280;10371;49.042;8.002;2022-08-20T03:09:28;99804.84;;;21.42;97.90
20424;BME280;10371;49.042;8.002;2022-08-20T03:10:31;99809.13;;;21.44;98.15
20424;BME280;10371;49.042;8.002;2022-08-20T03:11:32;99811.78;;;21.44;98.14
20424;BME280;10371;49.042;8.002;2022-08-20T03:12:33;99803.59;;;21.38;98.47
20424;BME280;10371;49.042;8.002;2022-08-20T03:13:35;99799.03;;;21.32;99.68
20424;BME280;10371;49.042;8.002;2022-08-20T03:14:36;99804.34;;;21.32;100.00
20424;BME280;10371;49.042;8.002;2022-08-20T03:15:40;99801.47;;;21.34;99.85
20424;BME280;10371;49.042;8.002;2022-08-20T03:16:41;99809.25;;;21.35;99.63
20424;BME280;10371;49.042;8.002;2022-08-20T03:17:42;99805.34;;;21.31;99.31
20424;BME280;10371;49.042;8.002;2022-08-20T03:18:44;99806.34;;;21.30;99.27
20424;BME280;10371;49.042;8.002;2022-08-20T03:19:45;99814.50;;;21.29;99.57
20424;BME280;10371;49.042;8.002;2022-08-20T03:20:46;99811.84;;;21.29;99.62
20424;BME280;10371;49.042;8.002;2022-08-20T03:21:46;99805.94;;;21.27;99.76
20424;BME280;10371;49.042;8.002;2022-08-20T03:22:47;99796.34;;;21.26;99.83
20424;BME280;10371;49.042;8.002;2022-08-20T03:23:48;99801.66;;;21.26;100.00
20424;BME280;10371;49.042;8.002;2022-08-20T03:24:48;99801.44;;;21.27;100.00
20424;BME280;10371;49.042;8.002;2022-08-20T03:25:49;99806.50;;;21.22;100.00
20424;BME280;10371;49.042;8.002;2022-08-20T03:26:49;99793.03;;;21.17;100.00
20424;BME280;10371;49.042;8.002;2022-08-20T03:27:49;99808.34;;;21.22;100.00
20424;BME280;10371;49.042;8.002;2022-08-20T03:28:50;99804.25;;;21.19;100.00
20424;BME280;10371;49.042;8.002;2022-08-20T03:29:50;99803.03;;;21.22;100.00
20424;BME280;10371;49.042;8.002;2022-08-20T03:30:51;99798.13;;;21.18;100.00
20424;BME280;10371;49.042;8.002;2022-08-20T03:31:52;99805.88;;;21.20;100.00
20424;BME280;10371;49.042;8.002;2022-08-20T03:32:53;99802.63;;;21.18;100.00
20424;BME280;10371;49.042;8.002;2022-08-20T03:33:54;99800.16;;;21.16;100.00
20424;BME280;10371;49.042;8.002;2022-08-20T03:34:54;99788.75;;;21.16;100.00
20424;BME280;10371;49.042;8.002;2022-08-20T03:35:54;99793.03;;;21.17;100.00
20424;BME280;10371;49.042;8.002;2022-08-20T03:36:55;99791.00;;;21.19;100.00
20424;BME280;10371;49.042;8.002;2022-08-20T03:37:56;99796.13;;;21.20;100.00
20424;BME280;10371;49.042;8.002;2022-08-20T03:38:59;99798.56;;;21.22;99.78
20424;BME280;10371;49.042;8.002;2022-08-20T03:39:59;99794.91;;;21.23;99.61
20424;BME280;10371;49.042;8.002;2022-08-20T03:41:01;99802.66;;;21.25;99.68
20424;BME280;10371;49.042;8.002;2022-08-20T03:42:02;99797.19;;;21.26;99.27
20424;BME280;10371;49.042;8.002;2022-08-20T03:43:04;99794.06;;;21.23;99.19
20424;BME280;10371;49.042;8.002;2022-08-20T03:44:05;99804.09;;;21.27;99.41
20424;BME280;10371;49.042;8.002;2022-08-20T03:45:07;99797.78;;;21.28;99.10
20424;BME280;10371;49.042;8.002;2022-08-20T03:46:07;99797.19;;;21.26;99.09
20424;BME280;10371;49.042;8.002;2022-08-20T03:47:08;99797.97;;;21.27;98.86
20424;BME280;10371;49.042;8.002;2022-08-20T03:48:11;99797.97;;;21.27;98.84
20424;BME280;10371;49.042;8.002;2022-08-20T03:49:13;99797.34;;;21.25;98.94
20424;BME280;10371;49.042;8.002;2022-08-20T03:50:13;99796.72;;;21.23;98.92
20424;BME280;10371;49.042;8.002;2022-08-20T03:51:14;99795.72;;;21.24;99.12
20424;BME280;10371;49.042;8.002;2022-08-20T03:52:14;99800.00;;;21.25;99.50
20424;BME280;10371;49.042;8.002;2022-08-20T03:53:17;99802.84;;;21.23;99.89
20424;BME280;10371;49.042;8.002;2022-08-20T03:54:18;99796.31;;;21.19;100.00
20424;BME280;10371;49.042;8.002;2022-08-20T03:55:20;99806.25;;;21.17;100.00
20424;BME280;10371;49.042;8.002;2022-08-20T03:56:21;99801.34;;;21.14;100.00
20424;BME280;10371;49.042;8.002;2022-08-20T03:57:21;99802.38;;;21.13;100.00
20424;BME280;10371;49.042;8.002;2022-08-20T03:58:22;99796.44;;;21.11;100.00
20424;BME280;10371;49.042;8.002;2022-08-20T03:59:23;99795.81;;;21.09;100.00
20424;BME280;10371;49.042;8.002;2022-08-20T04:00:30;99793.78;;;21.11;100.00
20424;BME280;10371;49.042;8.002;2022-08-20T04:01:30;99791.53;;;21.08;100.00
20424;BME280;10371;49.042;8.002;2022-08-20T04:02:31;99799.31;;;21.09;100.00
20424;BME280;10371;49.042;8.002;2022-08-20T04:03:33;99793.56;;;21.06;100.00
20424;BME280;10371;49.042;8.002;2022-08-20T04:04:34;99804.78;;;21.08;100.00
20424;BME280;10371;49.042;8.002;2022-08-20T04:05:36;99801.94;;;21.09;100.00
20424;BME280;10371;49.042;8.002;2022-08-20T04:06:40;99802.56;;;21.11;100.00
20424;BME280;10371;49.042;8.002;2022-08-20T04:07:41;99810.69;;;21.10;100.00
20424;BME280;10371;49.042;8.002;2022-08-20T04:08:42;99809.88;;;21.09;100.00
20424;BME280;10371;49.042;8.002;2022-08-20T04:09:42;99804.13;;;21.06;100.00
20424;BME280;10371;49.042;8.002;2022-08-20T04:10:46;99807.25;;;21.09;100.00
20424;BME280;10371;49.042;8.002;2022-08-20T04:11:47;99819.63;;;21.09;100.00
20424;BME280;10371;49.042;8.002;2022-08-20T04:12:48;99810.28;;;21.06;100.00
20424;BME280;10371;49.042;8.002;2022-08-20T04:13:49;99811.09;;;21.07;100.00
20424;BME280;10371;49.042;8.002;2022-08-20T04:14:50;99816.78;;;21.04;100.00
20424;BME280;10371;49.042;8.002;2022-08-20T04:15:51;99822.06;;;21.04;100.00
20424;BME280;10371;49.042;8.002;2022-08-20T04:16:54;99823.06;;;21.03;100.00
20424;BME280;10371;49.042;8.002;2022-08-20T04:17:55;99820.63;;;21.01;100.00
20424;BME280;10371;49.042;8.002;2022-08-20T04:18:55;99813.50;;;21.02;100.00
20424;BME280;10371;49.042;8.002;2022-08-20T04:19:55;99822.44;;;21.01;100.00
20424;BME280;10371;49.042;8.002;2022-08-20T04:20:55;99818.34;;;20.98;100.00
20424;BME280;10371;49.042;8.002;2022-08-20T04:21:56;99820.78;;;21.00;100.00
20424;BME280;10371;49.042;8.002;2022-08-20T04:22:56;99824.25;;;21.00;100.00
20424;BME280;10371;49.042;8.002;2022-08-20T04:23:57;99823.25;;;21.01;100.00
20424;BME280;10371;49.042;8.002;2022-08-20T04:24:57;99824.06;;;21.02;100.00
20424;BME280;10371;49.042;8.002;2022-08-20T04:25:57;99828.34;;;21.03;100.00
20424;BME280;10371;49.042;8.002;2022-08-20T04:27:01;99830.00;;;21.04;100.00
20424;BME280;10371;49.042;8.002;2022-08-20T04:28:04;99821.22;;;21.03;100.00
20424;BME280;10371;49.042;8.002;2022-08-20T04:29:04;99825.72;;;21.03;100.00
20424;BME280;10371;49.042;8.002;2022-08-20T04:30:07;99829.78;;;21.05;100.00
20424;BME280;10371;49.042;8.002;2022-08-20T04:31:10;99824.72;;;21.04;100.00
20424;BME280;10371;49.042;8.002;2022-08-20T04:32:12;99823.25;;;21.01;100.00
20424;BME280;10371;49.042;8.002;2022-08-20T04:33:13;99832.44;;;21.05;100.00
20424;BME280;10371;49.042;8.002;2022-08-20T04:34:13;99833.25;;;21.06;100.00
20424;BME280;10371;49.042;8.002;2022-08-20T04:35:15;99830.63;;;21.06;100.00
20424;BME280;10371;49.042;8.002;2022-08-20T04:36:17;99829.00;;;21.05;100.00
20424;BME280;10371;49.042;8.002;2022-08-20T04:37:18;99827.38;;;21.04;100.00
20424;BME280;10371;49.042;8.002;2022-08-20T04:38:21;99834.28;;;21.05;100.00
20424;BME280;10371;49.042;8.002;2022-08-20T04:39:22;99832.84;;;21.02;100.00
20424;BME280;10371;49.042;8.002;2022-08-20T04:40:22;99832.03;;;21.02;100.00
20424;BME280;10371;49.042;8.002;2022-08-20T04:41:42;99832.03;;;21.02;100.00
20424;BME280;10371;49.042;8.002;2022-08-20T04:42:42;99833.41;;;20.97;100.00
20424;BME280;10371;49.042;8.002;2022-08-20T04:43:42;99836.03;;;20.97;100.00
20424;BME280;10371;49.042;8.002;2022-08-20T04:44:42;99838.50;;;20.99;100.00
20424;BME280;10371;49.042;8.002;2022-08-20T04:45:43;99843.16;;;20.97;100.00
20424;BME280;10371;49.042;8.002;2022-08-20T04:46:43;99834.41;;;20.96;100.00
20424;BME280;10371;49.042;8.002;2022-08-20T04:47:44;99838.69;;;20.97;100.00
20424;BME280;10371;49.042;8.002;2022-08-20T04:48:45;99834.41;;;20.96;100.00
20424;BME280;10371;49.042;8.002;2022-08-20T04:49:45;99831.78;;;20.96;100.00
20424;BME280;10371;49.042;8.002;2022-08-20T04:50:45;99830.75;;;20.97;100.00
20424;BME280;10371;49.042;8.002;2022-08-20T04:51:46;99834.84;;;21.00;100.00
20424;BME280;10371;49.042;8.002;2022-08-20T04:52:46;99826.09;;;21.00;100.00
20424;BME280;10371;49.042;8.002;2022-08-20T04:53:48;99830.41;;;21.01;100.00
20424;BME280;10371;49.042;8.002;2022-08-20T04:54:48;99831.81;;;21.03;100.00
20424;BME280;10371;49.042;8.002;2022-08-20T04:55:50;99828.34;;;21.03;100.00
20424;BME280;10371;49.042;8.002;2022-08-20T04:56:50;99825.94;;;21.08;100.00
20424;BME280;10371;49.042;8.002;2022-08-20T04:57:50;99831.25;;;21.08;100.00
20424;BME280;10371;49.042;8.002;2022-08-20T04:58:54;99829.88;;;21.12;100.00
20424;BME280;10371;49.042;8.002;2022-08-20T04:59:55;99833.13;;;21.14;100.00
20424;BME280;10371;49.042;8.002;2022-08-20T05:00:58;99831.75;;;21.18;100.00
20424;BME280;10371;49.042;8.002;2022-08-20T05:01:58;99833.63;;;21.24;100.00
20424;BME280;10371;49.042;8.002;2022-08-20T05:02:59;99828.94;;;21.26;99.98
20424;BME280;10371;49.042;8.002;2022-08-20T05:03:59;99832.19;;;21.28;100.00
20424;BME280;10371;49.042;8.002;2022-08-20T05:05:00;99834.50;;;21.31;100.00
20424;BME280;10371;49.042;8.002;2022-08-20T05:06:00;99831.44;;;21.34;100.00
20424;BME280;10371;49.042;8.002;2022-08-20T05:07:00;99828.81;;;21.34;99.92
20424;BME280;10371;49.042;8.002;2022-08-20T05:08:02;99831.25;;;21.36;99.83
20424;BME280;10371;49.042;8.002;2022-08-20T05:09:02;99835.38;;;21.38;99.67
20424;BME280;10371;49.042;8.002;2022-08-20T05:10:04;99833.75;;;21.37;99.61
20424;BME280;10371;49.042;8.002;2022-08-20T05:11:05;99839.28;;;21.42;99.91
20424;BME280;10371;49.042;8.002;2022-08-20T05:12:08;99831.94;;;21.45;99.44
20424;BME280;10371;49.042;8.002;2022-08-20T05:13:09;99842.34;;;21.46;99.06
20424;BME280;10371;49.042;8.002;2022-08-20T05:14:09;99837.69;;;21.48;98.72
20424;BME280;10371;49.042;8.002;2022-08-20T05:15:11;99829.75;;;21.55;98.39
20424;BME280;10371;49.042;8.002;2022-08-20T05:16:12;99825.25;;;21.49;97.91
20424;BME280;10371;49.042;8.002;2022-08-20T05:17:12;99832.03;;;21.58;97.88
20424;BME280;10371;49.042;8.002;2022-08-20T05:18:17;99842.03;;;21.62;97.47
20424;BME280;10371;49.042;8.002;2022-08-20T05:19:18;99839.00;;;21.66;97.26
20424;BME280;10371;49.042;8.002;2022-08-20T05:20:18;99840.47;;;21.75;97.06
20424;BME280;10371;49.042;8.002;2022-08-20T05:21:20;99835.22;;;21.81;96.72
20424;BME280;10371;49.042;8.002;2022-08-20T05:22:20;99848.09;;;21.91;96.63
20424;BME280;10371;49.042;8.002;2022-08-20T05:23:21;99836.69;;;21.97;95.84
20424;BME280;10371;49.042;8.002;2022-08-20T05:24:23;99840.00;;;22.06;95.22
20424;BME280;10371;49.042;8.002;2022-08-20T05:25:24;99834.13;;;22.17;94.44
20424;BME280;10371;49.042;8.002;2022-08-20T05:26:28;99839.50;;;22.24;93.28
20424;BME280;10371;49.042;8.002;2022-08-20T05:27:28;99831.13;;;22.34;92.89
20424;BME280;10371;49.042;8.002;2022-08-20T05:28:28;99838.50;;;22.45;92.52
20424;BME280;10371;49.042;8.002;2022-08-20T05:29:31;99838.31;;;22.53;91.83
20424;BME280;10371;49.042;8.002;2022-08-20T05:30:32;99834.03;;;22.52;90.92
20424;BME280;10371;49.042;8.002;2022-08-20T05:31:35;99840.97;;;22.53;90.81